Time;durP1;ratioP1;P1;durP2;ratioP2;P2;SDS_P1;SDS_P2;PMS_P1;PMS_P2;Temp;Humidity;BMP_temperature;BMP_pressure;BME280_temperature;BME280_humidity;BME280_pressure;Samples;Min_cycle;Max_cycle;Signal;HPM_P1;HPM_P2
2021/03/18 00:00:43;;;;;;;;;;;6.40;91.70;;;;;;4327161;33;44831;-74
2021/03/18 00:03:15;;;;;;;;;;;6.40;91.70;;;;;;4301200;33;20010;-74
2021/03/18 00:05:48;;;;;;;;;;;6.40;91.60;;;;;;4301818;33;20010;-74
2021/03/18 00:08:17;;;;;;;;;;;6.40;91.60;;;;;;4302515;33;20003;-74
2021/03/18 00:10:46;;;;;;;;;;;6.40;91.60;;;;;;4302226;33;20380;-74
2021/03/18 00:13:13;;;;;;;;;;;6.40;91.60;;;;;;4301244;33;20006;-74
2021/03/18 00:15:42;;;;;;;;;;;6.40;91.60;;;;;;4299903;33;44634;-74
2021/03/18 00:18:10;;;;;;;;;;;6.40;91.60;;;;;;4301854;33;30343;-74
2021/03/18 00:20:39;;;;;;;;;;;6.40;91.60;;;;;;4301830;33;20072;-74
2021/03/18 00:23:06;;;;;;;;;;;6.40;91.60;;;;;;4301474;33;20117;-74
2021/03/18 00:25:36;;;;;;;;;;;6.40;91.60;;;;;;4312737;33;23155;-74
2021/03/18 00:28:05;;;;;;;;;;;6.40;91.60;;;;;;4301647;33;20113;-74
2021/03/18 00:30:32;;;;;;;;;;;6.30;91.60;;;;;;4301642;33;40499;-74
2021/03/18 00:33:01;;;;;;;;;;;6.30;91.70;;;;;;4300233;33;42665;-74
2021/03/18 00:35:31;;;;;;;;;;;6.30;91.70;;;;;;4313020;33;20010;-74
2021/03/18 00:38:00;;;;;;;;;;;6.20;91.70;;;;;;4299787;33;43306;-74
2021/03/18 00:40:31;;;;;;;;;;;6.20;91.70;;;;;;4291851;33;20068;-74
2021/03/18 00:43:02;;;;;;;;;;;6.20;91.80;;;;;;4304143;33;20023;-74
2021/03/18 00:45:30;;;;;;;;;;;6.20;91.80;;;;;;4305372;33;20014;-75
2021/03/18 00:48:00;;;;;;;;;;;6.20;91.80;;;;;;4305196;33;20206;-74
2021/03/18 00:50:32;;;;;;;;;;;6.20;91.80;;;;;;4304818;33;20358;-75
2021/03/18 00:52:58;;;;;;;;;;;6.20;91.80;;;;;;4303647;33;20049;-74
2021/03/18 00:55:28;;;;;;;;;;;6.20;91.80;;;;;;4303700;33;20447;-75
2021/03/18 00:57:57;;;;;;;;;;;6.20;91.80;;;;;;4303914;33;20395;-74
2021/03/18 01:00:26;;;;;;;;;;;6.10;91.80;;;;;;4304776;33;20002;-74
2021/03/18 01:02:56;;;;;;;;;;;6.10;91.90;;;;;;4303309;33;20355;-74
2021/03/18 01:05:30;;;;;;;;;;;6.10;91.90;;;;;;4303734;33;20062;-74
2021/03/18 01:07:58;;;;;;;;;;;6.10;91.90;;;;;;4304966;33;20386;-74
2021/03/18 01:10:28;;;;;;;;;;;6.10;91.90;;;;;;4303327;33;20006;-74
2021/03/18 01:12:54;;;;;;;;;;;6.00;91.90;;;;;;4291314;33;20018;-74
2021/03/18 01:15:23;;;;;;;;;;;6.00;91.90;;;;;;4304724;33;20443;-74
2021/03/18 01:17:52;;;;;;;;;;;6.00;91.90;;;;;;4315714;33;20058;-74
2021/03/18 01:20:19;;;;;;;;;;;6.00;91.90;;;;;;4303217;33;20037;-74
2021/03/18 01:22:49;;;;;;;;;;;6.00;91.90;;;;;;4291995;33;20396;-74
2021/03/18 01:25:15;;;;;;;;;;;6.00;91.90;;;;;;4304108;33;20006;-74
2021/03/18 01:27:44;;;;;;;;;;;6.00;91.90;;;;;;4303176;33;20020;-74
2021/03/18 01:30:16;;;;;;;;;;;6.00;91.80;;;;;;4304449;33;20018;-74
2021/03/18 01:32:43;;;;;;;;;;;6.00;91.80;;;;;;4291330;33;20447;-75
2021/03/18 01:35:15;;;;;;;;;;;6.10;91.80;;;;;;4303360;33;20001;-75
2021/03/18 01:37:42;;;;;;;;;;;6.10;91.70;;;;;;4315466;33;20018;-75
2021/03/18 01:40:16;;;;;;;;;;;6.00;91.70;;;;;;4315281;33;20054;-75
2021/03/18 01:42:44;;;;;;;;;;;6.00;91.70;;;;;;4304291;33;20014;-75
2021/03/18 01:45:14;;;;;;;;;;;6.00;91.70;;;;;;4303908;33;20045;-75
2021/03/18 01:47:45;;;;;;;;;;;6.00;91.60;;;;;;4303775;33;20022;-74
2021/03/18 01:50:18;;;;;;;;;;;6.10;91.60;;;;;;4315151;33;20011;-74
2021/03/18 01:52:45;;;;;;;;;;;6.10;91.60;;;;;;4304331;33;20014;-74
2021/03/18 01:55:19;;;;;;;;;;;6.10;91.50;;;;;;4315056;33;20032;-74
2021/03/18 01:57:49;;;;;;;;;;;6.10;91.50;;;;;;4303771;33;20021;-74
2021/03/18 02:00:17;;;;;;;;;;;6.10;91.50;;;;;;4302932;33;20020;-74
2021/03/18 02:02:55;;;;;;;;;;;6.10;91.50;;;;;;4313212;33;20015;-74
2021/03/18 02:05:24;;;;;;;;;;;6.10;91.40;;;;;;4304425;33;42412;-74
2021/03/18 02:07:52;;;;;;;;;;;6.10;91.40;;;;;;4317617;33;32240;-74
2021/03/18 02:10:23;;;;;;;;;;;6.10;91.40;;;;;;4329615;33;20006;-74
2021/03/18 02:12:55;;;;;;;;;;;6.10;91.30;;;;;;4317514;33;40080;-74
2021/03/18 02:15:26;;;;;;;;;;;6.10;91.30;;;;;;4328117;33;43420;-74
2021/03/18 02:18:01;;;;;;;;;;;6.10;91.30;;;;;;4316051;33;32026;-74
2021/03/18 02:20:47;;;;;;;;;;;6.10;91.30;;;;;;4317227;33;43592;-74
2021/03/18 02:23:32;;;;;;;;;;;6.10;91.30;;;;;;4328771;33;20014;-74
2021/03/18 02:26:13;;;;;;;;;;;6.10;91.20;;;;;;4318302;33;20017;-74
2021/03/18 02:28:48;;;;;;;;;;;6.10;91.20;;;;;;4329221;33;20044;-74
2021/03/18 02:31:30;;;;;;;;;;;6.00;91.20;;;;;;4328964;33;20015;-74
2021/03/18 02:34:06;;;;;;;;;;;6.00;91.20;;;;;;4318110;33;20077;-75
2021/03/18 02:36:37;;;;;;;;;;;6.00;91.20;;;;;;4317840;33;20406;-74
2021/03/18 02:39:05;;;;;;;;;;;6.00;91.10;;;;;;4315983;33;43480;-74
2021/03/18 02:41:34;;;;;;;;;;;6.00;91.10;;;;;;4316503;33;39161;-74
2021/03/18 02:44:07;;;;;;;;;;;6.00;91.10;;;;;;4303168;33;43593;-74
2021/03/18 02:46:38;;;;;;;;;;;6.00;91.10;;;;;;4303725;33;44065;-74
2021/03/18 02:49:06;;;;;;;;;;;6.00;91.10;;;;;;4303875;33;42727;-74
2021/03/18 02:51:33;;;;;;;;;;;6.00;91.10;;;;;;4328761;33;20001;-74
2021/03/18 02:54:03;;;;;;;;;;;5.90;91.10;;;;;;4304651;33;19994;-74
2021/03/18 02:56:35;;;;;;;;;;;5.90;91.10;;;;;;4317395;33;20018;-74
2021/03/18 02:59:03;;;;;;;;;;;5.90;91.10;;;;;;4328781;33;20391;-74
2021/03/18 03:01:31;;;;;;;;;;;5.90;91.10;;;;;;4316412;33;20021;-74
2021/03/18 03:03:59;;;;;;;;;;;5.90;91.10;;;;;;4317677;33;20035;-74
2021/03/18 03:06:32;;;;;;;;;;;5.90;91.10;;;;;;4316280;33;20029;-74
2021/03/18 03:09:03;;;;;;;;;;;5.90;91.10;;;;;;4315031;33;45913;-74
2021/03/18 03:11:32;;;;;;;;;;;5.90;91.10;;;;;;4316920;33;43079;-74
2021/03/18 03:13:59;;;;;;;;;;;5.90;91.10;;;;;;4316272;33;44438;-75
2021/03/18 03:16:28;;;;;;;;;;;5.80;91.10;;;;;;4317458;33;20016;-74
2021/03/18 03:18:59;;;;;;;;;;;5.80;91.20;;;;;;4303137;33;44257;-75
2021/03/18 03:21:29;;;;;;;;;;;5.70;91.20;;;;;;4316548;33;38890;-74
2021/03/18 03:23:57;;;;;;;;;;;5.70;91.30;;;;;;4327056;33;44366;-74
2021/03/18 03:26:25;;;;;;;;;;;5.60;91.40;;;;;;4303452;33;24851;-74
2021/03/18 03:28:52;;;;;;;;;;;5.60;91.40;;;;;;4316110;33;44663;-74
2021/03/18 03:31:19;;;;;;;;;;;5.60;91.50;;;;;;4317173;33;20020;-74
2021/03/18 03:34:00;;;;;;;;;;;5.60;91.50;;;;;;4303557;33;19997;-74
2021/03/18 03:36:27;;;;;;;;;;;5.60;91.60;;;;;;4304269;33;20084;-74
2021/03/18 03:38:53;;;;;;;;;;;5.50;91.50;;;;;;4316344;33;39567;-74
2021/03/18 03:41:20;;;;;;;;;;;5.60;91.60;;;;;;4326779;33;42643;-74
2021/03/18 03:43:47;;;;;;;;;;;5.60;91.60;;;;;;4327907;33;20485;-74
2021/03/18 03:46:13;;;;;;;;;;;5.60;91.50;;;;;;4315678;33;42627;-74
2021/03/18 03:48:43;;;;;;;;;;;5.60;91.50;;;;;;4328314;33;20395;-74
2021/03/18 03:51:13;;;;;;;;;;;5.70;91.50;;;;;;4317279;33;20072;-74
2021/03/18 03:53:40;;;;;;;;;;;5.60;91.40;;;;;;4315170;33;43587;-74
2021/03/18 03:56:18;;;;;;;;;;;5.60;91.40;;;;;;4316790;33;20385;-74
2021/03/18 03:58:50;;;;;;;;;;;5.60;91.40;;;;;;4316104;33;20006;-74
2021/03/18 04:01:36;;;;;;;;;;;5.50;91.50;;;;;;4328425;33;20137;-74
2021/03/18 04:04:28;;;;;;;;;;;5.50;91.60;;;;;;4315846;33;44933;-74
2021/03/18 04:06:57;;;;;;;;;;;5.50;91.60;;;;;;4302999;33;43348;-74
2021/03/18 04:09:26;;;;;;;;;;;5.40;91.70;;;;;;4316096;33;20041;-74
2021/03/18 04:11:57;;;;;;;;;;;5.40;91.70;;;;;;4303511;33;20017;-74
2021/03/18 04:14:25;;;;;;;;;;;5.40;91.70;;;;;;4318387;33;43374;-74
2021/03/18 04:16:57;;;;;;;;;;;5.40;91.70;;;;;;4331157;33;20021;-74
2021/03/18 04:19:24;;;;;;;;;;;5.40;92.10;;;;;;4306870;33;19998;-74
2021/03/18 04:21:54;;;;;;;;;;;5.40;91.80;;;;;;4306401;33;20001;-74
2021/03/18 04:24:24;;;;;;;;;;;5.40;91.80;;;;;;4306775;33;20018;-74
2021/03/18 04:26:52;;;;;;;;;;;5.40;91.80;;;;;;4306020;33;44311;-74
2021/03/18 04:29:19;;;;;;;;;;;5.40;91.80;;;;;;4330791;33;20370;-74
2021/03/18 04:31:46;;;;;;;;;;;5.40;91.80;;;;;;4319875;33;20028;-74
2021/03/18 04:34:16;;;;;;;;;;;5.40;91.80;;;;;;4306508;33;20424;-74
2021/03/18 04:36:44;;;;;;;;;;;5.40;91.80;;;;;;4294025;33;20009;-74
2021/03/18 04:39:11;;;;;;;;;;;5.40;91.80;;;;;;4318348;33;40453;-74
2021/03/18 04:41:39;;;;;;;;;;;5.40;91.80;;;;;;4319267;33;20013;-74
2021/03/18 04:44:09;;;;;;;;;;;5.40;91.80;;;;;;4294149;33;20001;-74
2021/03/18 04:46:37;;;;;;;;;;;5.40;91.80;;;;;;4305023;33;39987;-74
2021/03/18 04:49:12;;;;;;;;;;;5.40;91.70;;;;;;4330218;33;20017;-74
2021/03/18 04:51:41;;;;;;;;;;;5.40;91.70;;;;;;4318491;33;44702;-74
2021/03/18 04:54:08;;;;;;;;;;;5.40;91.70;;;;;;4329150;33;43646;-74
2021/03/18 04:56:37;;;;;;;;;;;5.40;91.70;;;;;;4317053;33;45337;-74
2021/03/18 04:59:09;;;;;;;;;;;5.30;91.60;;;;;;4318309;33;20371;-74
2021/03/18 05:01:35;;;;;;;;;;;5.30;91.70;;;;;;4329312;33;38180;-74
2021/03/18 05:04:06;;;;;;;;;;;5.30;91.70;;;;;;4305430;33;25201;-74
2021/03/18 05:06:33;;;;;;;;;;;5.30;91.70;;;;;;4317204;33;43955;-74
2021/03/18 05:09:03;;;;;;;;;;;5.30;91.70;;;;;;4305265;33;43611;-74
2021/03/18 05:11:30;;;;;;;;;;;5.20;91.70;;;;;;4305101;33;43097;-74
2021/03/18 05:13:57;;;;;;;;;;;5.20;91.70;;;;;;4317586;33;42746;-74
2021/03/18 05:16:24;;;;;;;;;;;5.20;91.70;;;;;;4316675;33;44653;-74
2021/03/18 05:18:54;;;;;;;;;;;5.20;91.70;;;;;;4330244;33;20037;-74
2021/03/18 05:21:20;;;;;;;;;;;5.20;91.70;;;;;;4329677;33;22643;-75
2021/03/18 05:23:50;;;;;;;;;;;5.20;91.70;;;;;;4304456;33;41211;-74
2021/03/18 05:26:19;;;;;;;;;;;5.20;91.70;;;;;;4318643;33;20320;-74
2021/03/18 05:28:46;;;;;;;;;;;5.30;91.60;;;;;;4329392;33;28520;-74
2021/03/18 05:31:15;;;;;;;;;;;5.30;91.60;;;;;;4317902;33;20010;-74
2021/03/18 05:33:42;;;;;;;;;;;5.30;91.60;;;;;;4317876;33;40574;-74
2021/03/18 05:36:09;;;;;;;;;;;5.20;91.50;;;;;;4304567;33;36357;-74
2021/03/18 05:38:36;;;;;;;;;;;5.20;91.50;;;;;;4304745;33;34642;-74
2021/03/18 05:41:03;;;;;;;;;;;5.20;91.50;;;;;;4317684;33;20055;-74
2021/03/18 05:43:33;;;;;;;;;;;5.20;91.50;;;;;;4305495;33;20008;-74
2021/03/18 05:46:02;;;;;;;;;;;5.30;91.50;;;;;;4317244;33;43994;-74
2021/03/18 05:48:29;;;;;;;;;;;5.30;91.40;;;;;;4329225;33;20036;-74
2021/03/18 05:50:59;;;;;;;;;;;5.30;91.40;;;;;;4318942;33;20077;-75
2021/03/18 05:53:29;;;;;;;;;;;5.30;91.40;;;;;;4316222;33;39054;-74
2021/03/18 05:55:56;;;;;;;;;;;5.30;91.30;;;;;;4315860;33;43396;-74
2021/03/18 05:58:25;;;;;;;;;;;5.30;91.30;;;;;;4316108;33;40934;-75
2021/03/18 06:00:52;;;;;;;;;;;5.40;91.30;;;;;;4317812;33;43528;-75
2021/03/18 06:03:19;;;;;;;;;;;5.30;91.20;;;;;;4317219;33;35051;-74
2021/03/18 06:05:59;;;;;;;;;;;5.40;91.20;;;;;;4317765;33;38588;-75
2021/03/18 06:08:26;;;;;;;;;;;5.40;91.20;;;;;;4317315;33;44338;-74
2021/03/18 06:10:55;;;;;;;;;;;5.40;91.20;;;;;;4328052;33;45400;-74
2021/03/18 06:13:22;;;;;;;;;;;5.40;91.10;;;;;;4317324;33;44988;-74
2021/03/18 06:15:48;;;;;;;;;;;5.40;91.10;;;;;;4328400;33;44340;-74
2021/03/18 06:18:15;;;;;;;;;;;5.40;91.10;;;;;;4328450;33;43010;-74
2021/03/18 06:20:47;;;;;;;;;;;5.30;91.00;;;;;;4317477;33;34870;-74
2021/03/18 06:23:14;;;;;;;;;;;5.30;91.10;;;;;;4317222;33;44242;-74
2021/03/18 06:25:40;;;;;;;;;;;5.30;91.10;;;;;;4316702;33;44388;-74
2021/03/18 06:28:19;;;;;;;;;;;5.30;91.10;;;;;;4316640;33;44033;-74
2021/03/18 06:30:55;;;;;;;;;;;5.30;91.10;;;;;;4328931;33;20057;-74
2021/03/18 06:33:25;;;;;;;;;;;5.20;91.10;;;;;;4304023;33;20622;-74
2021/03/18 06:35:54;;;;;;;;;;;5.20;91.10;;;;;;4317266;33;20424;-74
2021/03/18 06:38:25;;;;;;;;;;;5.10;91.20;;;;;;4317053;33;20085;-74
2021/03/18 06:40:52;;;;;;;;;;;5.10;91.20;;;;;;4318035;33;20068;-74
2021/03/18 06:43:33;;;;;;;;;;;5.10;91.60;;;;;;4317956;33;20403;-74
2021/03/18 06:46:16;;;;;;;;;;;5.10;91.30;;;;;;4318207;33;20061;-74
2021/03/18 06:48:46;;;;;;;;;;;5.00;91.40;;;;;;4316915;33;20002;-74
2021/03/18 06:51:20;;;;;;;;;;;5.00;91.40;;;;;;4304473;33;20009;-74
2021/03/18 06:53:53;;;;;;;;;;;5.00;91.40;;;;;;4304763;33;19997;-74
2021/03/18 06:56:30;;;;;;;;;;;4.90;91.40;;;;;;4305087;33;20017;-74
2021/03/18 06:58:58;;;;;;;;;;;5.00;91.50;;;;;;4317476;33;20005;-74
2021/03/18 07:01:31;;;;;;;;;;;4.90;91.40;;;;;;4304496;33;20402;-75
2021/03/18 07:04:04;;;;;;;;;;;5.00;91.40;;;;;;4304936;33;20475;-74
2021/03/18 07:06:51;;;;;;;;;;;5.00;91.70;;;;;;4304373;33;20014;-74
2021/03/18 07:09:17;;;;;;;;;;;5.00;91.40;;;;;;4316226;33;20432;-74
2021/03/18 07:11:47;;;;;;;;;;;5.00;91.40;;;;;;4317646;33;20019;-74
2021/03/18 07:14:17;;;;;;;;;;;4.90;91.40;;;;;;4317900;33;20006;-74
2021/03/18 07:17:03;;;;;;;;;;;4.90;91.50;;;;;;4317350;33;20013;-74
2021/03/18 07:19:30;;;;;;;;;;;4.90;91.50;;;;;;4316522;33;20006;-74
2021/03/18 07:21:58;;;;;;;;;;;4.90;91.60;;;;;;4316934;33;20025;-74
2021/03/18 07:24:32;;;;;;;;;;;4.80;91.60;;;;;;4317685;33;20438;-74
2021/03/18 07:27:06;;;;;;;;;;;4.80;91.70;;;;;;4304328;33;20028;-74
2021/03/18 07:29:33;;;;;;;;;;;4.80;91.70;;;;;;4316575;33;20004;-74
2021/03/18 07:32:00;;;;;;;;;;;4.80;91.70;;;;;;4317319;33;20020;-74
2021/03/18 07:34:28;;;;;;;;;;;4.80;91.80;;;;;;4328287;33;19994;-74
2021/03/18 07:37:08;;;;;;;;;;;4.80;91.80;;;;;;4317453;33;20057;-74
2021/03/18 07:39:41;;;;;;;;;;;4.70;91.90;;;;;;4304771;33;20019;-74
2021/03/18 07:42:11;;;;;;;;;;;4.80;91.90;;;;;;4317590;33;20073;-74
2021/03/18 07:44:41;;;;;;;;;;;4.70;91.90;;;;;;4317084;33;20073;-74
2021/03/18 07:47:11;;;;;;;;;;;4.70;91.90;;;;;;4316846;33;20009;-75
2021/03/18 07:49:45;;;;;;;;;;;4.70;91.90;;;;;;4304294;33;20067;-74
2021/03/18 07:52:19;;;;;;;;;;;4.70;91.90;;;;;;4304065;33;20399;-74
2021/03/18 07:54:50;;;;;;;;;;;4.70;92.00;;;;;;4317587;33;20009;-74
2021/03/18 07:57:31;;;;;;;;;;;4.80;92.00;;;;;;4328483;33;20010;-75
2021/03/18 08:00:13;;;;;;;;;;;4.80;92.00;;;;;;4317420;33;20096;-74
2021/03/18 08:02:40;;;;;;;;;;;4.80;92.00;;;;;;4316726;33;20012;-74
2021/03/18 08:05:11;;;;;;;;;;;4.80;92.00;;;;;;4328503;33;20010;-74
2021/03/18 08:07:38;;;;;;;;;;;4.80;92.00;;;;;;4314479;33;44519;-74
2021/03/18 08:10:07;;;;;;;;;;;4.80;92.00;;;;;;4316906;33;20021;-74
2021/03/18 08:12:41;;;;;;;;;;;4.80;92.00;;;;;;4316869;33;20412;-74
2021/03/18 08:15:18;;;;;;;;;;;4.80;92.00;;;;;;4316331;33;20084;-74
2021/03/18 08:17:47;;;;;;;;;;;4.80;92.00;;;;;;4327984;33;20024;-74
2021/03/18 08:20:33;;;;;;;;;;;4.80;92.00;;;;;;4317002;33;20014;-74
2021/03/18 08:23:20;;;;;;;;;;;4.80;92.00;;;;;;4328000;33;20370;-74
2021/03/18 08:25:49;;;;;;;;;;;4.80;92.00;;;;;;4303360;33;20459;-74
2021/03/18 08:28:35;;;;;;;;;;;4.80;92.10;;;;;;4316654;33;20014;-74
2021/03/18 08:31:06;;;;;;;;;;;4.80;92.10;;;;;;4326895;33;28202;-74
2021/03/18 08:33:33;;;;;;;;;;;4.80;92.10;;;;;;4314445;33;44562;-74
2021/03/18 08:36:24;;;;;;;;;;;4.80;92.10;;;;;;4315793;33;20073;-74
2021/03/18 08:38:53;;;;;;;;;;;4.80;92.20;;;;;;4312685;33;20020;-74
2021/03/18 08:41:28;;;;;;;;;;;4.90;92.20;;;;;;4316599;33;20051;-74
2021/03/18 08:44:11;;;;;;;;;;;4.80;92.20;;;;;;4303203;33;23804;-74
2021/03/18 08:46:41;;;;;;;;;;;4.80;92.30;;;;;;4315796;33;20071;-74
2021/03/18 08:49:18;;;;;;;;;;;4.80;92.20;;;;;;4315855;33;42156;-74
2021/03/18 08:51:45;;;;;;;;;;;4.90;92.30;;;;;;4303566;33;20013;-73
2021/03/18 08:54:31;;;;;;;;;;;4.90;92.30;;;;;;4316547;33;20022;-74
2021/03/18 08:57:03;;;;;;;;;;;4.90;92.30;;;;;;4303066;33;20068;-74
2021/03/18 08:59:30;;;;;;;;;;;4.90;92.30;;;;;;4317215;33;20379;-74
2021/03/18 09:02:07;;;;;;;;;;;4.90;92.30;;;;;;4318020;33;20024;-74
2021/03/18 09:04:37;;;;;;;;;;;4.90;92.30;;;;;;4330448;33;20008;-74
2021/03/18 09:07:14;;;;;;;;;;;4.90;92.30;;;;;;4305586;33;20062;-74
2021/03/18 09:09:41;;;;;;;;;;;4.90;92.30;;;;;;4305248;33;44563;-74
2021/03/18 09:12:08;;;;;;;;;;;4.90;92.30;;;;;;4318365;33;34525;-73
2021/03/18 09:14:36;;;;;;;;;;;4.90;92.30;;;;;;4318008;33;43272;-74
2021/03/18 09:17:08;;;;;;;;;;;4.90;92.30;;;;;;4317859;33;37610;-74
2021/03/18 09:19:36;;;;;;;;;;;4.90;92.30;;;;;;4306257;33;20061;-74
2021/03/18 09:22:03;;;;;;;;;;;5.00;92.40;;;;;;4319105;33;20012;-73
2021/03/18 09:24:40;;;;;;;;;;;5.00;92.30;;;;;;4330054;33;20390;-74
2021/03/18 09:27:12;;;;;;;;;;;5.00;92.30;;;;;;4304713;33;45771;-74
2021/03/18 09:29:39;;;;;;;;;;;5.00;92.30;;;;;;4317542;33;43462;-74
2021/03/18 09:32:07;;;;;;;;;;;5.10;92.30;;;;;;4318708;33;20012;-74
2021/03/18 09:34:35;;;;;;;;;;;5.10;92.30;;;;;;4317190;33;20399;-74
2021/03/18 09:37:02;;;;;;;;;;;5.10;92.30;;;;;;4318981;33;20014;-74
2021/03/18 09:39:29;;;;;;;;;;;5.10;92.20;;;;;;4318851;33;20137;-74
2021/03/18 09:41:59;;;;;;;;;;;5.10;92.20;;;;;;4319031;33;20070;-74
2021/03/18 09:44:29;;;;;;;;;;;5.10;92.20;;;;;;4329933;33;20016;-74
2021/03/18 09:46:57;;;;;;;;;;;5.10;92.30;;;;;;4318704;33;20018;-74
2021/03/18 09:49:28;;;;;;;;;;;5.10;92.30;;;;;;4329652;33;20010;-74
2021/03/18 09:52:03;;;;;;;;;;;5.10;92.30;;;;;;4319009;33;20092;-74
2021/03/18 09:54:30;;;;;;;;;;;5.20;92.20;;;;;;4305376;33;20032;-74
2021/03/18 09:56:59;;;;;;;;;;;5.10;92.20;;;;;;4318439;33;20020;-74
2021/03/18 09:59:30;;;;;;;;;;;5.20;92.20;;;;;;4328987;33;20029;-74
2021/03/18 10:01:57;;;;;;;;;;;5.20;92.30;;;;;;4304577;33;29925;-74
2021/03/18 10:04:24;;;;;;;;;;;5.20;92.20;;;;;;4317649;33;34779;-74
2021/03/18 10:06:54;;;;;;;;;;;5.20;92.20;;;;;;4303671;33;43531;-74
2021/03/18 10:09:28;;;;;;;;;;;5.20;92.20;;;;;;4317133;33;39894;-74
2021/03/18 10:11:54;;;;;;;;;;;5.20;92.20;;;;;;4305398;33;20009;-74
2021/03/18 10:14:24;;;;;;;;;;;5.30;92.20;;;;;;4318599;33;20045;-73
2021/03/18 10:17:11;;;;;;;;;;;5.30;92.20;;;;;;4317908;33;20456;-74
2021/03/18 10:19:49;;;;;;;;;;;5.30;92.10;;;;;;4329621;33;20078;-74
2021/03/18 10:22:27;;;;;;;;;;;5.30;92.10;;;;;;4317547;33;20041;-74
2021/03/18 10:25:00;;;;;;;;;;;5.30;92.10;;;;;;4317853;33;20002;-74
2021/03/18 10:27:50;;;;;;;;;;;5.30;92.10;;;;;;4318326;33;20010;-74
2021/03/18 10:30:19;;;;;;;;;;;5.40;92.10;;;;;;4312667;33;41453;-74
2021/03/18 10:33:00;;;;;;;;;;;5.40;92.10;;;;;;4317100;33;43563;-74
2021/03/18 10:35:30;;;;;;;;;;;5.40;92.00;;;;;;4317828;33;20059;-73
2021/03/18 10:37:59;;;;;;;;;;;5.40;92.00;;;;;;4317020;33;20350;-73
2021/03/18 10:40:28;;;;;;;;;;;5.40;92.00;;;;;;4329114;33;20422;-74
2021/03/18 10:43:00;;;;;;;;;;;5.40;92.00;;;;;;4317886;33;20014;-73
2021/03/18 10:45:34;;;;;;;;;;;5.40;92.00;;;;;;4318090;33;20403;-74
2021/03/18 10:48:02;;;;;;;;;;;5.40;91.90;;;;;;4318038;33;20002;-74
2021/03/18 10:50:36;;;;;;;;;;;5.40;92.00;;;;;;4317895;33;20069;-73
2021/03/18 10:53:07;;;;;;;;;;;5.40;92.00;;;;;;4304219;33;20002;-73
2021/03/18 10:55:38;;;;;;;;;;;5.40;91.90;;;;;;4316905;33;44348;-73
2021/03/18 10:58:08;;;;;;;;;;;5.50;91.90;;;;;;4316981;33;35890;-73
2021/03/18 11:00:37;;;;;;;;;;;5.50;91.80;;;;;;4304634;33;20430;-74
2021/03/18 11:03:15;;;;;;;;;;;5.50;91.80;;;;;;4304162;33;20006;-74
2021/03/18 11:05:49;;;;;;;;;;;5.50;91.70;;;;;;4317556;33;20013;-74
2021/03/18 11:08:35;;;;;;;;;;;5.60;91.80;;;;;;4328160;33;29981;-74
2021/03/18 11:11:10;;;;;;;;;;;5.60;91.70;;;;;;4316836;33;40021;-74
2021/03/18 11:13:37;;;;;;;;;;;5.60;91.50;;;;;;4327597;33;45385;-74
2021/03/18 11:16:04;;;;;;;;;;;5.60;91.50;;;;;;4316311;33;32295;-74
2021/03/18 11:18:34;;;;;;;;;;;5.60;91.50;;;;;;4291041;33;39217;-74
2021/03/18 11:21:02;;;;;;;;;;;5.60;91.60;;;;;;4314748;33;43453;-74
2021/03/18 11:23:31;;;;;;;;;;;5.60;91.60;;;;;;4316473;33;20069;-73
2021/03/18 11:26:05;;;;;;;;;;;5.60;91.60;;;;;;4317591;33;20399;-74
2021/03/18 11:28:33;;;;;;;;;;;5.70;91.60;;;;;;4317621;33;20466;-74
2021/03/18 11:31:09;;;;;;;;;;;5.60;91.50;;;;;;4317481;33;20005;-74
2021/03/18 11:33:41;;;;;;;;;;;5.70;91.50;;;;;;4316652;33;39131;-74
2021/03/18 11:36:08;;;;;;;;;;;5.70;91.50;;;;;;4316052;33;44618;-74
2021/03/18 11:38:37;;;;;;;;;;;5.70;91.50;;;;;;4317124;33;20020;-74
2021/03/18 11:41:07;;;;;;;;;;;5.80;91.40;;;;;;4302877;33;43777;-73
2021/03/18 11:43:33;;;;;;;;;;;5.80;91.40;;;;;;4316503;33;20053;-74
2021/03/18 11:46:00;;;;;;;;;;;5.80;91.40;;;;;;4316991;33;20375;-73
2021/03/18 11:48:29;;;;;;;;;;;5.80;91.40;;;;;;4317435;33;20013;-74
2021/03/18 11:50:56;;;;;;;;;;;5.90;91.40;;;;;;4316024;33;43438;-73
2021/03/18 11:53:25;;;;;;;;;;;5.90;91.50;;;;;;4302427;33;44821;-74
2021/03/18 11:55:52;;;;;;;;;;;5.90;91.40;;;;;;4302992;33;44682;-74
2021/03/18 11:58:21;;;;;;;;;;;6.00;91.30;;;;;;4316118;33;43308;-74
2021/03/18 12:00:48;;;;;;;;;;;6.00;91.20;;;;;;4327236;33;44475;-73
2021/03/18 12:03:16;;;;;;;;;;;6.10;91.20;;;;;;4315743;33;20021;-74
2021/03/18 12:05:43;;;;;;;;;;;6.10;91.00;;;;;;4302948;33;42780;-74
2021/03/18 12:08:10;;;;;;;;;;;6.10;91.10;;;;;;4328157;33;20006;-74
2021/03/18 12:10:56;;;;;;;;;;;6.10;91.10;;;;;;4316399;33;32162;-74
2021/03/18 12:13:22;;;;;;;;;;;6.10;91.00;;;;;;4314755;33;41697;-74
2021/03/18 12:15:49;;;;;;;;;;;6.20;91.00;;;;;;4314603;33;44989;-74
2021/03/18 12:18:17;;;;;;;;;;;6.20;91.00;;;;;;4303020;33;41613;-74
2021/03/18 12:20:45;;;;;;;;;;;6.20;91.00;;;;;;4314742;33;27789;-74
2021/03/18 12:23:11;;;;;;;;;;;6.20;91.00;;;;;;4302630;33;42401;-74
2021/03/18 12:25:40;;;;;;;;;;;6.20;90.90;;;;;;4326735;33;44129;-74
2021/03/18 12:28:07;;;;;;;;;;;6.30;91.00;;;;;;4303550;33;19998;-74
2021/03/18 12:30:33;;;;;;;;;;;6.30;90.90;;;;;;4314577;33;36820;-74
2021/03/18 12:33:00;;;;;;;;;;;6.30;90.90;;;;;;4302112;33;45079;-74
2021/03/18 12:35:27;;;;;;;;;;;6.30;90.80;;;;;;4304503;33;20756;-74
2021/03/18 12:37:54;;;;;;;;;;;6.40;90.90;;;;;;4317081;33;44582;-74
2021/03/18 12:40:21;;;;;;;;;;;6.40;90.90;;;;;;4318946;33;42930;-74
2021/03/18 12:42:48;;;;;;;;;;;6.40;90.90;;;;;;4305568;33;43368;-74
2021/03/18 12:45:15;;;;;;;;;;;6.40;90.80;;;;;;4318766;33;40717;-75
2021/03/18 12:47:45;;;;;;;;;;;6.40;90.80;;;;;;4306014;33;20407;-74
2021/03/18 12:50:15;;;;;;;;;;;6.40;90.80;;;;;;4305089;33;38829;-74
2021/03/18 12:52:41;;;;;;;;;;;6.40;90.80;;;;;;4305173;33;38601;-74
2021/03/18 12:55:09;;;;;;;;;;;6.40;90.80;;;;;;4316977;33;44724;-74
2021/03/18 12:57:49;;;;;;;;;;;6.40;90.80;;;;;;4305070;33;36012;-74
2021/03/18 13:00:17;;;;;;;;;;;6.40;90.70;;;;;;4304888;33;39264;-74
2021/03/18 13:02:44;;;;;;;;;;;6.40;90.70;;;;;;4304676;33;44459;-74
2021/03/18 13:05:11;;;;;;;;;;;6.50;90.70;;;;;;4317828;33;44022;-74
2021/03/18 13:07:37;;;;;;;;;;;6.40;90.70;;;;;;4318179;33;42297;-74
2021/03/18 13:10:06;;;;;;;;;;;6.50;90.70;;;;;;4316685;33;44515;-74
2021/03/18 13:12:33;;;;;;;;;;;6.40;90.70;;;;;;4317932;33;35981;-74
2021/03/18 13:15:02;;;;;;;;;;;6.50;90.70;;;;;;4318341;33;34481;-74
2021/03/18 13:17:30;;;;;;;;;;;6.50;90.80;;;;;;4292877;33;34771;-74
2021/03/18 13:19:58;;;;;;;;;;;6.50;90.80;;;;;;4305236;33;36283;-74
2021/03/18 13:22:25;;;;;;;;;;;6.50;90.80;;;;;;4317589;33;42473;-74
2021/03/18 13:24:51;;;;;;;;;;;6.50;90.70;;;;;;4318126;33;35349;-74
2021/03/18 13:27:18;;;;;;;;;;;6.50;90.70;;;;;;4317986;33;41143;-74
2021/03/18 13:29:46;;;;;;;;;;;6.60;90.80;;;;;;4329312;33;32612;-74
2021/03/18 13:32:13;;;;;;;;;;;6.60;90.80;;;;;;4304834;33;31647;-74
2021/03/18 13:34:40;;;;;;;;;;;6.60;90.70;;;;;;4306105;33;20466;-74
2021/03/18 13:37:09;;;;;;;;;;;6.60;90.70;;;;;;4318605;33;20028;-74
2021/03/18 13:39:40;;;;;;;;;;;6.70;90.70;;;;;;4318172;33;38734;-73
2021/03/18 13:42:11;;;;;;;;;;;6.70;90.60;;;;;;4328693;33;37151;-74
2021/03/18 13:44:38;;;;;;;;;;;6.70;90.60;;;;;;4317541;33;43359;-73
2021/03/18 13:47:04;;;;;;;;;;;6.70;90.60;;;;;;4317086;33;39553;-74
2021/03/18 13:49:32;;;;;;;;;;;6.70;90.60;;;;;;4317699;33;44688;-73
2021/03/18 13:51:58;;;;;;;;;;;6.70;90.50;;;;;;4304182;33;44718;-73
2021/03/18 13:54:28;;;;;;;;;;;6.70;90.50;;;;;;4317220;33;42878;-74
2021/03/18 13:56:57;;;;;;;;;;;6.70;90.50;;;;;;4304207;33;45969;-74
2021/03/18 13:59:23;;;;;;;;;;;6.70;90.40;;;;;;4317563;33;43343;-73
2021/03/18 14:01:54;;;;;;;;;;;6.70;90.50;;;;;;4304031;33;43905;-73
2021/03/18 14:04:22;;;;;;;;;;;6.80;90.50;;;;;;4304308;33;39947;-74
2021/03/18 14:06:48;;;;;;;;;;;6.80;90.50;;;;;;4317315;33;44056;-74
2021/03/18 14:09:15;;;;;;;;;;;6.80;90.50;;;;;;4328889;33;28704;-73
2021/03/18 14:11:42;;;;;;;;;;;6.80;90.50;;;;;;4316929;33;44503;-74
2021/03/18 14:14:09;;;;;;;;;;;6.80;90.50;;;;;;4316885;33;44706;-74
2021/03/18 14:16:35;;;;;;;;;;;6.80;90.30;;;;;;4318700;33;20014;-74
2021/03/18 14:19:02;;;;;;;;;;;6.90;90.30;;;;;;4317209;33;39804;-74
2021/03/18 14:21:32;;;;;;;;;;;6.90;90.30;;;;;;4304432;33;38718;-73
2021/03/18 14:24:00;;;;;;;;;;;6.90;90.30;;;;;;4316716;33;43878;-74
2021/03/18 14:26:29;;;;;;;;;;;6.90;90.30;;;;;;4317069;33;39132;-74
2021/03/18 14:28:56;;;;;;;;;;;6.90;90.30;;;;;;4315608;33;40996;-74
2021/03/18 14:31:22;;;;;;;;;;;6.90;90.30;;;;;;4315524;33;44595;-74
2021/03/18 14:33:49;;;;;;;;;;;6.90;90.30;;;;;;4315654;33;46467;-74
2021/03/18 14:36:18;;;;;;;;;;;6.90;90.20;;;;;;4315858;33;42003;-74
2021/03/18 14:38:46;;;;;;;;;;;6.90;90.20;;;;;;4316937;33;36470;-74
2021/03/18 14:41:12;;;;;;;;;;;6.90;90.20;;;;;;4315552;33;43065;-74
2021/03/18 14:43:39;;;;;;;;;;;6.90;90.10;;;;;;4315853;33;38732;-74
2021/03/18 14:46:06;;;;;;;;;;;7.00;90.10;;;;;;4316013;33;42509;-74
2021/03/18 14:48:32;;;;;;;;;;;7.00;90.10;;;;;;4327752;33;44673;-74